createdAt,value
2022-08-18T00:01:44.444Z,27.60
2022-08-18T00:04:21.743Z,29.52
2022-08-18T00:06:58.934Z,29.45
2022-08-18T00:09:30.130Z,30.45
2022-08-18T00:11:58.952Z,28.60
2022-08-18T00:14:25.835Z,31.40
2022-08-18T00:16:54.617Z,29.52
2022-08-18T00:19:46.923Z,29.65
2022-08-18T00:22:15.213Z,29.48
2022-08-18T00:24:49.207Z,30.50
2022-08-18T00:27:30.454Z,29.98
2022-08-18T00:30:03.927Z,29.05
2022-08-18T00:32:37.856Z,29.75
2022-08-18T00:35:13.882Z,30.75
2022-08-18T00:37:41.967Z,30.58
2022-08-18T00:40:12.342Z,30.40
2022-08-18T00:42:47.753Z,30.80
2022-08-18T00:45:18.857Z,31.80
2022-08-18T00:47:46.294Z,30.17
2022-08-18T00:50:16.524Z,31.40
2022-08-18T00:52:53.505Z,30.95
2022-08-18T00:55:21.682Z,30.17
2022-08-18T00:57:51.646Z,30.85
2022-08-18T01:00:19.132Z,31.13
2022-08-18T01:02:50.670Z,32.25
2022-08-18T01:05:30.462Z,32.30
2022-08-18T01:07:57.609Z,34.00
2022-08-18T01:10:24.539Z,33.50
2022-08-18T01:12:56.452Z,32.15
2022-08-18T01:15:28.163Z,28.17
2022-08-18T01:18:17.548Z,31.08
2022-08-18T01:21:22.901Z,33.75
2022-08-18T01:23:52.287Z,34.35
2022-08-18T01:26:21.825Z,34.72
2022-08-18T01:28:49.667Z,34.55
2022-08-18T01:31:55.632Z,34.22
2022-08-18T01:34:27.624Z,38.80
2022-08-18T01:36:55.003Z,37.33
2022-08-18T01:41:22.075Z,36.83
2022-08-18T01:42:10.094Z,38.15
2022-08-18T01:44:37.729Z,39.03
2022-08-18T01:47:04.555Z,37.78
2022-08-18T01:49:31.410Z,39.38
2022-08-18T01:51:58.242Z,38.13
2022-08-18T01:54:30.613Z,40.60
2022-08-18T01:56:57.821Z,37.75
2022-08-18T01:59:24.712Z,38.78
2022-08-18T02:01:56.353Z,38.97
2022-08-18T02:04:37.051Z,41.53
2022-08-18T02:07:07.842Z,41.13
2022-08-18T02:09:37.461Z,38.50
2022-08-18T02:12:05.967Z,39.60
2022-08-18T02:14:34.533Z,36.63
2022-08-18T02:17:03.550Z,38.25
2022-08-18T02:19:35.551Z,38.95
2022-08-18T02:22:03.590Z,35.30
2022-08-18T02:24:30.511Z,36.72
2022-08-18T02:26:59.991Z,34.63
2022-08-18T02:29:27.384Z,34.38
2022-08-18T02:31:54.789Z,34.95
2022-08-18T02:34:21.678Z,33.53
2022-08-18T02:36:48.571Z,34.03
2022-08-18T02:39:15.500Z,34.13
2022-08-18T02:41:42.539Z,33.92
2022-08-18T02:44:09.940Z,34.10
2022-08-18T02:46:37.697Z,35.38
2022-08-18T02:49:06.255Z,36.20
2022-08-18T02:51:33.615Z,34.60
2022-08-18T02:54:00.661Z,34.90
2022-08-18T02:56:40.742Z,33.33
2022-08-18T02:59:13.167Z,33.92
2022-08-18T03:01:42.979Z,35.78
2022-08-18T03:04:12.500Z,33.90
2022-08-18T03:06:40.205Z,33.28
2022-08-18T03:09:09.928Z,32.50
2022-08-18T03:11:37.919Z,31.02
2022-08-18T03:14:06.519Z,32.47
2022-08-18T03:16:38.770Z,31.60
2022-08-18T03:19:05.572Z,31.42
2022-08-18T03:21:36.232Z,33.90
2022-08-18T03:24:09.142Z,33.63
2022-08-18T03:26:41.809Z,33.85
2022-08-18T03:29:09.650Z,35.20
2022-08-18T03:31:38.416Z,35.83
2022-08-18T03:34:08.415Z,35.25
2022-08-18T03:36:37.014Z,35.70
2022-08-18T03:39:10.523Z,37.30
2022-08-18T03:41:59.090Z,36.67
2022-08-18T03:44:30.703Z,37.63
2022-08-18T03:46:57.830Z,38.55
2022-08-18T03:49:26.854Z,36.67
2022-08-18T03:51:54.499Z,36.47
2022-08-18T03:54:21.728Z,36.70
2022-08-18T03:56:49.547Z,34.42
2022-08-18T03:59:19.876Z,35.25
2022-08-18T04:01:49.428Z,36.60
2022-08-18T04:04:19.620Z,37.17
2022-08-18T04:06:58.578Z,37.00
2022-08-18T04:09:29.428Z,37.13
2022-08-18T04:11:58.355Z,38.58
2022-08-18T04:14:32.632Z,39.45
2022-08-18T04:16:59.693Z,38.83
2022-08-18T04:19:27.955Z,36.80
2022-08-18T04:21:57.937Z,36.63
2022-08-18T04:24:28.150Z,37.92
2022-08-18T04:26:59.108Z,38.08
2022-08-18T04:29:25.976Z,38.35
2022-08-18T04:31:52.898Z,37.08
2022-08-18T04:34:22.826Z,37.85
2022-08-18T04:36:54.060Z,36.60
2022-08-18T04:39:22.145Z,37.80
2022-08-18T04:41:49.993Z,34.88
2022-08-18T04:44:18.308Z,33.75
2022-08-18T04:46:52.033Z,34.50
2022-08-18T04:49:21.687Z,34.90
2022-08-18T04:52:26.882Z,37.05
2022-08-18T04:54:55.762Z,36.92
2022-08-18T04:57:23.094Z,35.85
2022-08-18T04:59:52.374Z,36.53
2022-08-18T05:02:21.318Z,34.28
2022-08-18T05:04:48.552Z,34.17
2022-08-18T05:07:20.077Z,33.50
2022-08-18T05:09:47.167Z,34.67
2022-08-18T05:12:15.984Z,34.78
2022-08-18T05:14:45.318Z,33.28
2022-08-18T05:17:14.267Z,34.10
2022-08-18T05:19:44.595Z,34.63
2022-08-18T05:22:17.854Z,34.65
2022-08-18T05:24:45.814Z,35.20
2022-08-18T05:27:13.602Z,35.17
2022-08-18T05:29:41.493Z,35.20
2022-08-18T05:32:41.014Z,37.88
2022-08-18T05:35:14.144Z,37.70
2022-08-18T05:37:47.447Z,41.88
2022-08-18T05:40:15.020Z,39.95
2022-08-18T05:42:42.815Z,39.30
2022-08-18T05:45:17.077Z,35.35
2022-08-18T05:47:44.773Z,36.47
2022-08-18T05:50:17.186Z,36.20
2022-08-18T05:52:55.175Z,37.80
2022-08-18T05:56:02.785Z,36.40
2022-08-18T05:58:36.636Z,35.80
2022-08-18T06:01:30.216Z,35.35
2022-08-18T06:04:05.272Z,35.25
2022-08-18T06:06:36.055Z,34.35
2022-08-18T06:09:12.165Z,35.33
2022-08-18T06:11:39.305Z,36.42
2022-08-18T06:14:06.355Z,35.65
2022-08-18T06:16:33.126Z,34.17
2022-08-18T06:19:11.972Z,32.97
2022-08-18T06:22:02.575Z,35.47
2022-08-18T06:24:46.760Z,35.20
2022-08-18T06:27:19.615Z,35.17
2022-08-18T06:29:53.598Z,32.60
2022-08-18T06:32:41.915Z,33.70
2022-08-18T06:35:08.707Z,33.53
2022-08-18T06:38:01.464Z,34.05
2022-08-18T06:40:28.409Z,34.65
2022-08-18T06:42:55.233Z,33.35
2022-08-18T06:45:41.915Z,31.73
2022-08-18T06:48:27.390Z,31.98
2022-08-18T06:51:00.346Z,32.55
2022-08-18T06:53:50.399Z,32.38
2022-08-18T06:56:40.829Z,31.73
2022-08-18T06:59:34.298Z,31.40
2022-08-18T07:02:02.750Z,31.65
2022-08-18T07:04:37.717Z,30.80
2022-08-18T07:07:40.742Z,31.80
2022-08-18T07:10:29.181Z,31.23
2022-08-18T07:13:19.384Z,30.48
2022-08-18T07:15:48.263Z,29.38
2022-08-18T07:18:26.357Z,28.80
2022-08-18T07:21:02.432Z,29.05
2022-08-18T07:23:38.664Z,28.55
2022-08-18T07:26:15.598Z,27.55
2022-08-18T07:28:46.031Z,27.75
2022-08-18T07:31:24.900Z,25.38
2022-08-18T07:34:21.231Z,26.35
2022-08-18T07:36:51.360Z,25.98
2022-08-18T07:39:28.053Z,25.92
2022-08-18T07:42:53.966Z,26.33
2022-08-18T07:45:23.861Z,25.02
2022-08-18T07:48:20.809Z,25.83
2022-08-18T07:50:58.854Z,24.42
2022-08-18T07:53:54.417Z,26.10
2022-08-18T07:56:44.904Z,25.88
2022-08-18T07:59:11.708Z,25.13
2022-08-18T08:01:51.623Z,24.95
2022-08-18T08:04:35.921Z,23.85
2022-08-18T08:07:27.464Z,24.98
2022-08-18T08:10:15.927Z,24.52
2022-08-18T08:12:51.849Z,23.17
2022-08-18T08:15:26.729Z,23.67
2022-08-18T08:18:03.073Z,23.05
2022-08-18T08:20:39.292Z,24.10
2022-08-18T08:23:17.875Z,23.75
2022-08-18T08:25:53.077Z,24.25
2022-08-18T08:28:57.519Z,25.27
2022-08-18T08:31:54.018Z,23.02
2022-08-18T08:34:27.700Z,24.88
2022-08-18T08:37:04.444Z,22.52
2022-08-18T08:39:47.350Z,23.75
2022-08-18T08:42:29.087Z,22.23
2022-08-18T08:45:07.280Z,22.88
2022-08-18T08:47:44.448Z,23.30
2022-08-18T08:50:19.779Z,21.55
2022-08-18T08:52:56.837Z,22.02
2022-08-18T08:55:37.237Z,22.27
2022-08-18T08:58:54.595Z,21.42
2022-08-18T09:01:48.994Z,19.92
2022-08-18T09:04:15.842Z,19.40
2022-08-18T09:07:22.678Z,20.40
2022-08-18T09:10:04.412Z,21.40
2022-08-18T09:12:58.726Z,21.63
2022-08-18T09:15:43.976Z,19.00
2022-08-18T09:18:34.169Z,18.60
2022-08-18T09:21:11.835Z,21.58
2022-08-18T09:23:46.313Z,20.40
2022-08-18T09:26:39.395Z,20.88
2022-08-18T09:29:24.585Z,19.95
2022-08-18T09:32:22.997Z,20.75
2022-08-18T09:35:09.742Z,21.05
2022-08-18T09:38:20.432Z,19.85
2022-08-18T09:41:31.398Z,20.30
2022-08-18T09:44:21.533Z,19.15
2022-08-18T09:46:57.492Z,18.30
2022-08-18T09:49:38.834Z,19.73
2022-08-18T09:52:43.781Z,18.08
2022-08-18T09:55:18.040Z,18.05
2022-08-18T09:57:46.689Z,17.50
2022-08-18T10:00:28.497Z,17.70
2022-08-18T10:02:55.627Z,16.77
2022-08-18T10:05:31.205Z,18.02
2022-08-18T10:08:07.206Z,14.27
2022-08-18T10:11:00.351Z,14.05
2022-08-18T10:13:54.830Z,15.82
2022-08-18T10:17:21.794Z,13.05
2022-08-18T10:19:57.601Z,16.00
2022-08-18T10:22:47.513Z,14.10
2022-08-18T10:25:32.902Z,13.27
2022-08-18T10:28:01.813Z,12.75
2022-08-18T10:30:52.693Z,12.60
2022-08-18T10:34:05.543Z,13.88
2022-08-18T10:36:59.397Z,13.27
2022-08-18T10:39:41.246Z,14.00
2022-08-18T10:42:33.724Z,13.88
2022-08-18T10:45:11.901Z,14.55
2022-08-18T10:47:38.882Z,14.70
2022-08-18T10:50:20.026Z,14.07
2022-08-18T10:56:01.944Z,13.25
2022-08-18T10:58:51.624Z,14.98
2022-08-18T11:01:35.589Z,11.98
2022-08-18T11:04:14.462Z,14.35
2022-08-18T11:07:00.702Z,11.82
2022-08-18T11:09:30.117Z,13.90
2022-08-18T11:12:02.871Z,15.05
2022-08-18T11:14:35.769Z,15.98
2022-08-18T11:17:26.338Z,13.95
2022-08-18T11:19:54.671Z,12.05
2022-08-18T11:25:31.245Z,11.98
2022-08-18T11:27:59.662Z,11.38
2022-08-18T11:30:35.215Z,11.35
2022-08-18T11:33:04.087Z,11.30
2022-08-18T11:35:45.996Z,10.88
2022-08-18T11:38:20.800Z,12.18
2022-08-18T11:41:11.315Z,9.32
2022-08-18T11:43:42.447Z,10.68
2022-08-18T11:46:27.986Z,10.25
2022-08-18T11:48:57.844Z,11.27
2022-08-18T11:51:35.671Z,11.05
2022-08-18T11:54:23.183Z,10.50
2022-08-18T11:56:50.627Z,10.75
2022-08-18T11:59:52.610Z,11.50
2022-08-18T12:02:18.651Z,10.95
2022-08-18T12:04:52.507Z,9.82
2022-08-18T12:07:30.242Z,9.70
2022-08-18T12:13:07.425Z,10.80
2022-08-18T12:15:44.254Z,10.30
2022-08-18T12:21:02.888Z,10.93
2022-08-18T12:23:39.154Z,10.30
2022-08-18T12:26:18.991Z,10.48
2022-08-18T12:29:03.070Z,11.68
2022-08-18T12:31:42.452Z,10.27
2022-08-18T12:34:15.433Z,9.05
2022-08-18T12:36:42.854Z,8.13
2022-08-18T12:39:10.518Z,8.95
2022-08-18T12:41:37.769Z,10.13
2022-08-18T12:46:52.363Z,9.35
2022-08-18T12:49:22.019Z,10.20
2022-08-18T12:51:50.272Z,9.30
2022-08-18T12:54:21.169Z,8.23
2022-08-18T12:56:54.305Z,8.25
2022-08-18T12:59:21.725Z,8.63
2022-08-18T13:01:58.243Z,8.85
2022-08-18T13:04:26.958Z,8.80
2022-08-18T13:07:01.929Z,9.13
2022-08-18T13:09:48.912Z,8.50
2022-08-18T13:12:21.836Z,8.35
2022-08-18T13:14:49.908Z,9.13
2022-08-18T13:17:30.432Z,6.60
2022-08-18T13:20:18.940Z,7.30
2022-08-18T13:22:45.861Z,7.90
2022-08-18T13:25:28.732Z,8.90
2022-08-18T13:28:02.087Z,7.38
2022-08-18T13:30:31.062Z,7.53
2022-08-18T13:33:05.394Z,7.60
2022-08-18T13:35:48.322Z,6.70
2022-08-18T13:38:27.195Z,6.90
2022-08-18T13:40:58.727Z,7.85
2022-08-18T13:43:39.200Z,8.13
2022-08-18T13:46:09.272Z,8.15
2022-08-18T13:48:37.836Z,8.38
2022-08-18T13:51:08.495Z,9.15
2022-08-18T13:53:50.484Z,9.57
2022-08-18T13:56:19.739Z,8.15
2022-08-18T13:58:53.442Z,7.72
2022-08-18T14:01:45.379Z,8.70
2022-08-18T14:04:12.623Z,8.52
2022-08-18T14:06:46.938Z,8.68
2022-08-18T14:09:36.012Z,9.68
2022-08-18T14:12:15.777Z,9.65
2022-08-18T14:14:52.034Z,10.10
2022-08-18T14:17:22.242Z,8.75
2022-08-18T14:20:21.131Z,8.50
2022-08-18T14:23:10.329Z,8.73
2022-08-18T14:25:56.173Z,8.52
2022-08-18T14:28:24.849Z,7.72
2022-08-18T14:30:54.454Z,7.97
2022-08-18T14:33:27.259Z,7.80
2022-08-18T14:36:10.883Z,8.30
2022-08-18T14:38:38.399Z,11.55
2022-08-18T14:41:08.470Z,10.68
2022-08-18T14:44:11.258Z,10.50
2022-08-18T14:46:23.615Z,12.10
2022-08-18T14:48:57.439Z,13.65
2022-08-18T14:51:27.303Z,12.73
2022-08-18T14:53:55.326Z,13.15
2022-08-18T14:56:24.480Z,13.18
2022-08-18T14:58:55.986Z,11.93
2022-08-18T15:01:24.665Z,13.20
2022-08-18T15:03:55.021Z,14.07
2022-08-18T15:06:27.123Z,13.90
2022-08-18T15:08:56.934Z,14.68
2022-08-18T15:11:25.245Z,11.65
2022-08-18T15:13:55.420Z,13.20
2022-08-18T15:16:31.636Z,12.23
2022-08-18T15:18:59.651Z,12.05
2022-08-18T15:21:49.218Z,12.25
2022-08-18T15:24:37.561Z,11.82
2022-08-18T15:27:10.510Z,13.73
2022-08-18T15:29:46.551Z,12.98
2022-08-18T15:32:16.893Z,13.10
2022-08-18T15:34:46.625Z,11.13
2022-08-18T15:37:19.433Z,9.68
2022-08-18T15:39:51.974Z,13.07
2022-08-18T15:42:23.598Z,12.43
2022-08-18T15:44:52.745Z,11.25
2022-08-18T15:47:22.054Z,10.70
2022-08-18T15:49:52.203Z,9.48
2022-08-18T15:52:25.959Z,9.77
2022-08-18T15:54:57.000Z,11.30
2022-08-18T15:57:39.213Z,11.40
2022-08-18T16:00:12.266Z,11.30
2022-08-18T16:02:44.523Z,10.75
2022-08-18T16:05:12.009Z,11.48
2022-08-18T16:07:45.265Z,11.10
2022-08-18T16:10:13.771Z,12.05
2022-08-18T16:12:46.087Z,13.23
2022-08-18T16:15:19.453Z,11.88
2022-08-18T16:17:47.773Z,11.57
2022-08-18T16:20:15.127Z,11.98
2022-08-18T16:22:42.438Z,11.55
2022-08-18T16:25:10.152Z,11.55
2022-08-18T16:27:42.021Z,12.30
2022-08-18T16:30:21.317Z,13.18
2022-08-18T16:32:49.002Z,10.88
2022-08-18T16:35:17.625Z,11.55
2022-08-18T16:37:46.759Z,12.35
2022-08-18T16:40:15.254Z,12.35
2022-08-18T16:42:42.097Z,13.40
2022-08-18T16:45:10.213Z,13.07
2022-08-18T16:47:40.451Z,12.35
2022-08-18T16:50:13.491Z,13.02
2022-08-18T16:52:41.325Z,12.50
2022-08-18T16:55:10.337Z,13.35
2022-08-18T16:58:00.853Z,10.63
2022-08-18T17:00:52.876Z,10.48
2022-08-18T17:03:44.113Z,11.00
2022-08-18T17:06:13.908Z,11.10
2022-08-18T17:08:42.474Z,12.77
2022-08-18T17:11:16.454Z,13.10
2022-08-18T17:13:44.751Z,11.60
2022-08-18T17:16:12.274Z,10.15
2022-08-18T17:18:40.392Z,10.48
2022-08-18T17:21:11.467Z,10.82
2022-08-18T17:23:39.258Z,11.18
2022-08-18T17:26:17.603Z,11.80
2022-08-18T17:29:01.806Z,12.85
2022-08-18T17:31:29.009Z,13.77
2022-08-18T17:34:04.327Z,14.95
2022-08-18T17:36:37.750Z,12.65
2022-08-18T17:39:11.021Z,13.30
2022-08-18T17:41:57.927Z,15.25
2022-08-18T17:44:31.087Z,14.10
2022-08-18T17:47:00.491Z,13.00
2022-08-18T17:50:28.211Z,16.15
2022-08-18T17:52:53.490Z,16.52
2022-08-18T17:55:41.729Z,16.17
2022-08-18T17:58:26.723Z,19.83
2022-08-18T18:00:53.737Z,19.83
2022-08-18T18:03:20.744Z,19.17
2022-08-18T18:05:51.851Z,18.33
2022-08-18T18:08:18.873Z,18.10
2022-08-18T18:11:05.382Z,18.50
2022-08-18T18:13:33.941Z,15.93
2022-08-18T18:16:19.924Z,17.38
2022-08-18T18:18:56.538Z,16.30
2022-08-18T18:21:53.481Z,17.02
2022-08-18T18:24:15.383Z,16.10
2022-08-18T18:26:48.127Z,16.35
2022-08-18T18:29:37.670Z,18.42
2022-08-18T18:32:24.152Z,18.40
2022-08-18T18:35:09.806Z,17.33
2022-08-18T18:37:47.133Z,17.02
2022-08-18T18:40:20.699Z,17.10
2022-08-18T18:42:48.132Z,17.05
2022-08-18T18:45:31.069Z,18.05
2022-08-18T18:48:03.140Z,17.17
2022-08-18T18:50:53.121Z,17.05
2022-08-18T18:54:01.139Z,16.38
2022-08-18T18:56:39.545Z,17.08
2022-08-18T18:59:25.680Z,17.38
2022-08-18T19:02:02.646Z,17.85
2022-08-18T19:04:44.031Z,18.20
2022-08-18T19:07:25.165Z,15.68
2022-08-18T19:10:29.425Z,18.65
2022-08-18T19:13:00.940Z,17.25
2022-08-18T19:15:30.258Z,18.10
2022-08-18T19:18:17.368Z,18.02
2022-08-18T19:21:25.512Z,17.10
2022-08-18T19:23:50.840Z,16.02
2022-08-18T19:26:27.054Z,19.05
2022-08-18T19:29:08.989Z,17.92
2022-08-18T19:32:04.695Z,17.10
2022-08-18T19:34:36.375Z,15.80
2022-08-18T19:37:47.892Z,16.77
2022-08-18T19:40:24.533Z,17.55
2022-08-18T19:43:12.098Z,16.70
2022-08-18T19:45:44.827Z,16.13
2022-08-18T19:48:39.403Z,16.70
2022-08-18T19:51:12.435Z,15.30
2022-08-18T19:53:52.819Z,17.00
2022-08-18T19:56:22.617Z,17.10
2022-08-18T19:59:25.869Z,16.98
2022-08-18T20:02:19.760Z,18.52
2022-08-18T20:04:57.378Z,18.25
2022-08-18T20:07:26.955Z,18.35
2022-08-18T20:10:23.987Z,20.20
2022-08-18T20:13:19.982Z,18.52
2022-08-18T20:16:15.987Z,18.02
2022-08-18T20:18:49.074Z,19.77
2022-08-18T20:21:15.917Z,20.35
2022-08-18T20:24:07.216Z,20.60
2022-08-18T20:26:38.165Z,20.63
2022-08-18T20:29:11.287Z,22.02
2022-08-18T20:31:49.725Z,21.88
2022-08-18T20:34:21.213Z,21.33
2022-08-18T20:36:49.621Z,20.77
2022-08-18T20:39:46.265Z,19.45
2022-08-18T20:42:22.229Z,20.67
2022-08-18T20:44:49.516Z,20.50
2022-08-18T20:47:42.013Z,20.60
2022-08-18T20:50:31.429Z,19.85
2022-08-18T20:53:07.757Z,21.27
2022-08-18T20:56:01.205Z,21.33
2022-08-18T20:58:45.659Z,19.83
2022-08-18T21:01:13.894Z,18.80
2022-08-18T21:03:44.061Z,18.33
2022-08-18T21:06:15.358Z,21.17
2022-08-18T21:09:01.194Z,21.25
2022-08-18T21:11:38.275Z,19.55
2022-08-18T21:14:05.258Z,19.83
2022-08-18T21:16:38.715Z,21.75
2022-08-18T21:19:13.897Z,21.25
2022-08-18T21:21:45.952Z,21.90
2022-08-18T21:24:27.995Z,21.95
2022-08-18T21:26:58.470Z,21.50
2022-08-18T21:29:51.533Z,20.65
2022-08-18T21:32:22.592Z,20.50
2022-08-18T21:34:50.139Z,21.35
2022-08-18T21:37:18.286Z,22.70
2022-08-18T21:39:57.709Z,21.75
2022-08-18T21:42:29.055Z,22.60
2022-08-18T21:45:00.663Z,23.63
2022-08-18T21:47:34.335Z,21.83
2022-08-18T21:50:13.055Z,23.25
2022-08-18T21:52:56.360Z,23.27
2022-08-18T21:55:45.245Z,23.23
2022-08-18T21:58:17.851Z,24.08
2022-08-18T22:01:08.263Z,24.17
2022-08-18T22:03:56.264Z,26.20
2022-08-18T22:06:40.444Z,25.30
2022-08-18T22:09:28.728Z,25.02
2022-08-18T22:12:44.107Z,25.55
2022-08-18T22:15:31.111Z,25.27
2022-08-18T22:18:00.820Z,25.50
2022-08-18T22:20:48.150Z,22.92
2022-08-18T22:23:33.401Z,24.17
2022-08-18T22:26:18.401Z,24.92
2022-08-18T22:29:00.522Z,24.40
2022-08-18T22:31:37.327Z,24.98
2022-08-18T22:34:17.444Z,25.73
2022-08-18T22:37:15.639Z,26.13
2022-08-18T22:40:01.033Z,25.00
2022-08-18T22:42:33.203Z,25.50
2022-08-18T22:45:04.479Z,26.05
2022-08-18T22:47:40.515Z,28.00
2022-08-18T22:50:11.000Z,26.70
2022-08-18T22:52:46.469Z,27.17
2022-08-18T22:55:21.953Z,26.67
2022-08-18T22:57:51.440Z,29.75
2022-08-18T23:00:23.461Z,29.10
2022-08-18T23:02:53.451Z,29.67
2022-08-18T23:05:20.481Z,29.35
2022-08-18T23:07:47.437Z,28.85
2022-08-18T23:10:16.537Z,30.73
2022-08-18T23:12:44.570Z,29.00
2022-08-18T23:15:11.771Z,29.10
2022-08-18T23:17:40.687Z,29.35
2022-08-18T23:20:12.184Z,28.92
2022-08-18T23:22:45.449Z,28.55
2022-08-18T23:25:13.425Z,28.55
2022-08-18T23:27:41.301Z,29.67
2022-08-18T23:30:09.319Z,31.40
2022-08-18T23:32:36.398Z,35.22
2022-08-18T23:35:04.132Z,34.13
2022-08-18T23:37:31.688Z,35.72
2022-08-18T23:39:59.200Z,36.78
2022-08-18T23:42:26.062Z,35.70
2022-08-18T23:44:52.867Z,33.85
2022-08-18T23:47:20.930Z,32.50
2022-08-18T23:49:48.492Z,33.13
2022-08-18T23:52:15.375Z,33.80
2022-08-18T23:54:42.400Z,35.33
2022-08-18T23:57:09.210Z,34.42
2022-08-18T23:59:36.626Z,35.90
